Time;durP1;ratioP1;P1;durP2;ratioP2;P2;SDS_P1;SDS_P2;PMS_P1;PMS_P2;Temp;Humidity;BMP_temperature;BMP_pressure;BME280_temperature;BME280_humidity;BME280_pressure;Samples;Min_cycle;Max_cycle;Signal;HPM_P1;HPM_P2
2020/12/20 00:01:42;;;;;;;8.03;6.87;;;10.00;99.90;;;;;;5012670;28;20606;-74
2020/12/20 00:04:08;;;;;;;8.47;7.57;;;9.90;99.90;;;;;;5011912;28;21128;-74
2020/12/20 00:06:39;;;;;;;9.43;8.30;;;9.80;99.90;;;;;;5012056;28;20459;-74
2020/12/20 00:09:30;;;;;;;12.07;8.20;;;9.70;99.90;;;;;;5012184;28;20557;-72
2020/12/20 00:11:57;;;;;;;10.27;9.23;;;9.60;99.90;;;;;;5008401;28;20441;-73
2020/12/20 00:14:31;;;;;;;10.47;8.40;;;9.60;99.90;;;;;;5012184;28;20541;-74
2020/12/20 00:16:59;;;;;;;11.50;9.27;;;9.60;99.90;;;;;;5012353;28;20409;-74
2020/12/20 00:19:26;;;;;;;12.97;9.23;;;9.50;99.90;;;;;;5012064;28;20566;-74
2020/12/20 00:21:59;;;;;;;11.53;9.37;;;9.50;99.90;;;;;;5011908;28;20952;-74
2020/12/20 00:24:26;;;;;;;11.20;8.40;;;9.50;99.90;;;;;;5017781;28;20434;-75
2020/12/20 00:26:51;;;;;;;15.80;8.70;;;9.50;99.90;;;;;;5026951;28;20462;-73
2020/12/20 00:29:17;;;;;;;11.70;9.03;;;9.40;99.90;;;;;;5012112;28;20786;-72
2020/12/20 00:31:43;;;;;;;10.83;8.63;;;9.40;99.90;;;;;;5011912;28;20987;-73
2020/12/20 00:34:09;;;;;;;12.37;8.80;;;9.40;99.90;;;;;;5011768;28;20171;-75
2020/12/20 00:36:34;;;;;;;11.37;8.00;;;9.40;99.90;;;;;;5014768;28;20187;-75
2020/12/20 00:39:01;;;;;;;9.70;8.30;;;9.50;99.90;;;;;;5021838;28;20180;-70
2020/12/20 00:41:27;;;;;;;10.90;7.50;;;9.50;99.90;;;;;;5028905;28;20196;-75
2020/12/20 00:43:52;;;;;;;10.13;8.00;;;9.50;99.90;;;;;;5016902;28;20481;-75
2020/12/20 00:46:18;;;;;;;9.47;7.80;;;9.50;99.90;;;;;;5030904;28;20208;-73
2020/12/20 00:48:43;;;;;;;9.63;8.70;;;9.50;99.90;;;;;;5007603;28;20192;-74
2020/12/20 00:51:10;;;;;;;11.40;8.97;;;9.50;99.90;;;;;;5009852;28;20249;-72
2020/12/20 00:53:38;;;;;;;9.23;7.97;;;9.50;99.90;;;;;;5011619;28;20634;-72
2020/12/20 00:56:07;;;;;;;10.30;7.60;;;9.50;99.90;;;;;;5011882;28;20410;-71
2020/12/20 00:58:34;;;;;;;9.30;7.97;;;9.50;99.90;;;;;;5011391;28;20501;-71
2020/12/20 01:01:02;;;;;;;9.43;7.70;;;9.50;99.90;;;;;;5010590;28;20447;-74
2020/12/20 01:03:28;;;;;;;9.77;8.33;;;9.50;99.90;;;;;;5011049;28;20646;-73
2020/12/20 01:05:54;;;;;;;11.53;9.20;;;9.40;99.90;;;;;;5011664;28;20459;-72
2020/12/20 01:08:19;;;;;;;10.47;7.80;;;9.50;99.90;;;;;;5012993;28;20176;-75
2020/12/20 01:10:45;;;;;;;8.50;6.83;;;9.40;99.90;;;;;;5017045;28;20284;-75
2020/12/20 01:13:11;;;;;;;10.10;7.87;;;9.50;99.90;;;;;;5013722;28;20180;-73
2020/12/20 01:15:37;;;;;;;9.20;7.60;;;9.50;99.90;;;;;;5015284;28;20207;-73
2020/12/20 01:18:03;;;;;;;11.10;7.53;;;9.50;99.90;;;;;;5013387;28;20478;-74
2020/12/20 01:20:28;;;;;;;8.10;7.13;;;9.50;99.90;;;;;;5013653;28;20287;-74
2020/12/20 01:22:54;;;;;;;10.30;8.00;;;9.60;99.90;;;;;;5015199;28;20411;-71
2020/12/20 01:25:19;;;;;;;8.03;6.60;;;9.50;99.90;;;;;;5012779;28;20322;-74
2020/12/20 01:27:45;;;;;;;8.33;7.43;;;9.60;99.90;;;;;;4999172;28;20177;-74
2020/12/20 01:30:11;;;;;;;14.60;8.50;;;9.60;99.90;;;;;;5014421;28;20184;-74
2020/12/20 01:32:36;;;;;;;11.80;7.80;;;9.50;99.90;;;;;;5013116;28;20191;-74
2020/12/20 01:35:03;;;;;;;11.93;7.80;;;9.40;99.90;;;;;;5021190;28;20165;-72
2020/12/20 01:37:31;;;;;;;12.70;8.80;;;9.40;99.90;;;;;;5023177;28;20701;-72
2020/12/20 01:39:57;;;;;;;9.70;7.70;;;9.50;99.90;;;;;;5009270;28;20435;-72
2020/12/20 01:42:23;;;;;;;10.00;8.33;;;9.50;99.90;;;;;;5007836;28;20427;-74
2020/12/20 01:44:48;;;;;;;14.30;9.83;;;9.50;99.90;;;;;;5005145;28;20267;-74
2020/12/20 01:47:16;;;;;;;9.53;8.13;;;9.60;99.90;;;;;;5012747;28;20220;-75
2020/12/20 01:49:42;;;;;;;11.47;8.03;;;9.60;99.90;;;;;;5017346;28;20177;-74
2020/12/20 01:52:08;;;;;;;12.00;9.07;;;9.60;99.90;;;;;;5012847;28;20450;-74
2020/12/20 01:54:35;;;;;;;9.70;8.17;;;9.50;99.90;;;;;;5008797;28;20430;-74
2020/12/20 01:57:03;;;;;;;12.20;8.87;;;9.50;99.90;;;;;;5001247;28;20444;-73
2020/12/20 01:59:29;;;;;;;10.07;8.40;;;9.60;99.90;;;;;;5015023;28;20447;-75
2020/12/20 02:01:58;;;;;;;12.03;8.77;;;9.60;99.90;;;;;;5046254;28;20896;-72
2020/12/20 02:04:25;;;;;;;10.53;7.60;;;9.60;99.90;;;;;;5017519;28;20528;-75
2020/12/20 02:06:51;;;;;;;24.97;9.23;;;9.70;99.90;;;;;;5033163;28;20455;-75
2020/12/20 02:09:17;;;;;;;7.87;7.17;;;9.80;99.90;;;;;;5014793;28;20446;-74
2020/12/20 02:11:43;;;;;;;8.60;7.70;;;9.90;99.90;;;;;;5010498;28;20249;-72
2020/12/20 02:14:09;;;;;;;13.23;7.20;;;10.00;99.90;;;;;;5004969;28;20522;-71
2020/12/20 02:16:34;;;;;;;10.00;8.00;;;10.00;99.90;;;;;;5010653;28;20185;-72
2020/12/20 02:19:00;;;;;;;11.10;8.70;;;10.00;99.90;;;;;;5011396;28;20215;-74
2020/12/20 02:21:25;;;;;;;10.13;7.87;;;10.10;99.90;;;;;;5008862;28;20281;-74
2020/12/20 02:23:51;;;;;;;9.70;8.00;;;10.20;99.90;;;;;;5012509;28;20255;-73
2020/12/20 02:26:19;;;;;;;7.77;7.17;;;10.10;99.90;;;;;;5011641;28;20700;-75
2020/12/20 02:28:49;;;;;;;11.83;7.50;;;10.00;99.90;;;;;;5038724;28;20203;-71
2020/12/20 02:31:15;;;;;;;6.53;5.93;;;10.00;99.90;;;;;;5018065;28;20448;-74
2020/12/20 02:33:40;;;;;;;8.27;6.87;;;10.00;99.90;;;;;;5011669;28;20790;-73
2020/12/20 02:36:06;;;;;;;9.57;6.87;;;9.90;99.90;;;;;;5012896;28;20269;-74
2020/12/20 02:38:33;;;;;;;8.43;6.70;;;9.90;99.90;;;;;;5012753;28;20540;-73
2020/12/20 02:40:58;;;;;;;10.33;7.83;;;9.90;99.90;;;;;;5010138;28;20653;-73
2020/12/20 02:43:25;;;;;;;7.53;6.40;;;9.90;99.90;;;;;;5007442;28;20431;-72
2020/12/20 02:45:51;;;;;;;7.93;6.50;;;9.90;99.90;;;;;;5011080;28;20717;-74
2020/12/20 02:48:17;;;;;;;11.40;7.17;;;9.90;99.90;;;;;;5013378;28;20518;-74
2020/12/20 02:50:43;;;;;;;7.67;6.93;;;9.90;99.90;;;;;;5016809;28;20454;-75
2020/12/20 02:53:08;;;;;;;6.97;6.27;;;9.80;99.90;;;;;;5016096;28;20616;-75
2020/12/20 02:55:34;;;;;;;8.43;7.40;;;9.80;99.90;;;;;;5013333;28;20855;-74
2020/12/20 02:58:00;;;;;;;8.30;6.53;;;9.90;99.90;;;;;;5013614;28;20176;-74
2020/12/20 03:00:25;;;;;;;7.60;6.07;;;9.90;99.90;;;;;;5007545;28;20205;-73
2020/12/20 03:02:51;;;;;;;12.10;7.20;;;10.00;99.90;;;;;;5013074;28;20180;-73
2020/12/20 03:05:20;;;;;;;9.27;7.50;;;10.00;99.90;;;;;;5012988;28;20286;-72
2020/12/20 03:07:48;;;;;;;10.33;9.33;;;10.00;99.90;;;;;;5013105;28;20585;-73
2020/12/20 03:10:15;;;;;;;8.73;7.13;;;10.00;99.90;;;;;;5013167;28;20426;-74
2020/12/20 03:12:41;;;;;;;8.67;7.10;;;10.00;99.90;;;;;;5012739;28;20434;-73
2020/12/20 03:15:06;;;;;;;9.90;8.07;;;10.00;99.90;;;;;;5012615;28;20419;-73
2020/12/20 03:17:32;;;;;;;9.07;8.17;;;9.90;99.90;;;;;;5010134;28;20171;-75
2020/12/20 03:19:58;;;;;;;12.00;8.60;;;9.90;99.90;;;;;;5003632;28;20770;-73
2020/12/20 03:22:23;;;;;;;11.70;8.87;;;9.80;99.90;;;;;;5012442;28;20204;-72
2020/12/20 03:24:49;;;;;;;16.77;9.77;;;9.80;99.90;;;;;;5017596;28;20172;-76
2020/12/20 03:27:14;;;;;;;10.57;9.43;;;9.80;99.90;;;;;;5017879;28;20230;-74
2020/12/20 03:29:40;;;;;;;10.30;9.00;;;9.80;99.90;;;;;;5012995;28;20191;-72
2020/12/20 03:32:05;;;;;;;15.10;8.60;;;9.70;99.90;;;;;;5012450;28;20243;-74
2020/12/20 03:34:31;;;;;;;8.80;7.97;;;9.70;99.90;;;;;;5010849;28;20187;-73
2020/12/20 03:36:57;;;;;;;10.83;8.73;;;9.60;99.90;;;;;;5013401;28;20176;-75
2020/12/20 03:39:22;;;;;;;11.43;8.90;;;9.60;99.90;;;;;;5046148;28;20573;-74
2020/12/20 03:41:48;;;;;;;10.53;8.07;;;9.60;99.90;;;;;;5010352;28;20258;-73
2020/12/20 03:44:13;;;;;;;9.23;8.03;;;9.70;99.90;;;;;;5011857;28;20222;-72
2020/12/20 03:46:39;;;;;;;10.17;8.33;;;9.60;99.90;;;;;;5011153;28;20199;-72
2020/12/20 03:49:05;;;;;;;10.60;7.77;;;9.60;99.90;;;;;;5011222;28;20222;-71
2020/12/20 03:51:30;;;;;;;9.17;8.27;;;9.60;99.90;;;;;;5011955;28;20602;-72
2020/12/20 03:53:56;;;;;;;10.17;9.17;;;9.70;99.90;;;;;;5011378;28;20728;-74
2020/12/20 03:56:22;;;;;;;9.00;8.03;;;9.70;99.90;;;;;;5016216;28;20239;-75
2020/12/20 03:58:47;;;;;;;8.80;7.90;;;9.60;99.90;;;;;;5014646;28;20271;-75
2020/12/20 04:01:13;;;;;;;11.20;9.50;;;9.60;99.90;;;;;;5015471;28;21054;-73
2020/12/20 04:03:38;;;;;;;10.80;8.17;;;9.60;99.90;;;;;;5015692;28;20191;-75
2020/12/20 04:06:04;;;;;;;10.60;9.40;;;9.60;99.90;;;;;;5012486;28;20231;-74
2020/12/20 04:08:30;;;;;;;11.03;8.60;;;9.60;99.90;;;;;;5010877;28;20190;-74
2020/12/20 04:10:55;;;;;;;12.63;9.37;;;9.70;99.90;;;;;;5010628;28;20258;-72
2020/12/20 04:13:22;;;;;;;12.83;8.57;;;9.60;99.90;;;;;;5004665;28;20256;-73
2020/12/20 04:15:47;;;;;;;11.03;8.97;;;9.60;99.90;;;;;;5003360;28;20203;-74
2020/12/20 04:18:13;;;;;;;9.60;8.70;;;9.70;99.90;;;;;;5006886;28;20493;-74
2020/12/20 04:20:39;;;;;;;10.10;8.57;;;9.70;99.90;;;;;;5011010;28;20283;-72
2020/12/20 04:23:05;;;;;;;10.40;9.40;;;9.80;99.90;;;;;;5013411;28;20518;-74
2020/12/20 04:25:30;;;;;;;11.30;9.53;;;9.80;99.90;;;;;;5016084;28;20712;-72
2020/12/20 04:27:56;;;;;;;10.63;9.50;;;9.80;99.90;;;;;;5014260;28;20183;-75
2020/12/20 04:30:22;;;;;;;10.70;9.47;;;9.80;99.90;;;;;;5011593;28;20192;-71
2020/12/20 04:32:47;;;;;;;13.77;9.37;;;9.80;99.90;;;;;;5010471;28;22117;-72
2020/12/20 04:35:13;;;;;;;16.80;9.20;;;9.80;99.90;;;;;;5009184;28;20184;-74
2020/12/20 04:37:38;;;;;;;13.13;9.47;;;9.90;99.90;;;;;;5009899;28;20271;-74
2020/12/20 04:40:05;;;;;;;9.00;8.10;;;9.90;99.90;;;;;;5016526;28;20180;-75
2020/12/20 04:42:30;;;;;;;12.03;9.33;;;9.90;99.90;;;;;;5016881;28;20180;-76
2020/12/20 04:44:56;;;;;;;10.33;9.23;;;10.00;99.90;;;;;;5018377;28;20533;-75
2020/12/20 04:47:24;;;;;;;10.43;9.33;;;10.00;99.90;;;;;;5015502;28;20208;-72
2020/12/20 04:49:52;;;;;;;15.20;7.70;;;10.00;99.90;;;;;;5014372;28;20423;-74
2020/12/20 04:52:19;;;;;;;10.20;9.30;;;9.90;99.90;;;;;;5014957;28;20445;-74
2020/12/20 04:54:45;;;;;;;11.63;8.60;;;9.90;99.90;;;;;;5015353;28;20936;-72
2020/12/20 04:57:15;;;;;;;12.27;8.40;;;10.00;99.90;;;;;;5015642;28;20415;-72
2020/12/20 04:59:41;;;;;;;8.80;7.70;;;10.00;99.90;;;;;;5014397;28;20426;-72
2020/12/20 05:02:07;;;;;;;9.53;8.03;;;10.00;99.90;;;;;;5015143;28;20442;-72
2020/12/20 05:04:35;;;;;;;9.30;7.73;;;10.00;99.90;;;;;;5013726;28;20457;-73
2020/12/20 05:07:01;;;;;;;9.20;8.30;;;9.90;99.90;;;;;;5015100;28;20203;-72
2020/12/20 05:09:26;;;;;;;9.53;8.63;;;9.80;99.90;;;;;;5015467;28;20419;-73
2020/12/20 05:11:52;;;;;;;10.20;9.03;;;9.60;99.90;;;;;;5018350;28;20445;-75
2020/12/20 05:14:33;;;;;;;13.20;10.10;;;9.70;99.90;;;;;;5016806;28;20169;-74
2020/12/20 05:16:58;;;;;;;14.27;10.23;;;9.60;99.90;;;;;;5017285;28;20274;-75
2020/12/20 05:19:31;;;;;;;11.83;8.63;;;9.60;99.90;;;;;;5015592;28;20457;-74
2020/12/20 05:22:15;;;;;;;10.13;9.13;;;9.50;99.90;;;;;;5014911;28;20192;-72
2020/12/20 05:24:42;;;;;;;9.77;8.77;;;9.40;99.90;;;;;;5014944;28;20427;-74
2020/12/20 05:27:23;;;;;;;11.10;9.83;;;9.40;99.90;;;;;;5014593;28;20880;-73
2020/12/20 05:29:52;;;;;;;11.93;10.67;;;9.30;99.90;;;;;;5015237;28;20403;-72
2020/12/20 05:32:28;;;;;;;11.93;10.53;;;9.20;99.90;;;;;;5014730;28;20439;-72
2020/12/20 05:35:02;;;;;;;11.70;10.30;;;9.20;99.90;;;;;;4996068;28;20436;-72
2020/12/20 05:37:32;;;;;;;13.27;11.87;;;9.20;99.90;;;;;;5019226;28;20426;-74
2020/12/20 05:39:58;;;;;;;10.70;9.20;;;9.30;99.90;;;;;;5016008;28;20454;-74
2020/12/20 05:42:24;;;;;;;13.40;11.00;;;9.40;99.90;;;;;;5014356;28;20431;-72
2020/12/20 05:45:23;;;;;;;13.57;10.03;;;9.50;99.90;;;;;;5014940;28;20422;-73
2020/12/20 05:47:48;;;;;;;14.23;9.80;;;9.40;99.90;;;;;;5016006;28;20447;-75
2020/12/20 05:50:14;;;;;;;10.60;9.60;;;9.50;99.90;;;;;;5015965;28;20422;-74
2020/12/20 05:52:40;;;;;;;11.73;9.80;;;9.50;99.90;;;;;;5014232;28;20222;-74
2020/12/20 05:55:13;;;;;;;13.00;10.83;;;9.50;99.90;;;;;;5046308;28;20729;-71
2020/12/20 05:57:40;;;;;;;14.23;9.97;;;9.40;99.90;;;;;;5014622;28;20430;-74
2020/12/20 06:00:06;;;;;;;10.63;9.37;;;9.50;99.90;;;;;;5015834;28;20399;-75
2020/12/20 06:02:32;;;;;;;9.67;8.53;;;9.50;99.90;;;;;;5019738;28;20434;-75
2020/12/20 06:05:00;;;;;;;11.13;9.73;;;9.50;99.90;;;;;;5019305;28;20825;-74
2020/12/20 06:07:27;;;;;;;11.50;10.13;;;9.50;99.90;;;;;;5036612;28;20490;-75
2020/12/20 06:09:55;;;;;;;10.97;9.77;;;9.40;99.90;;;;;;5020441;28;20423;-73
2020/12/20 06:12:23;;;;;;;13.10;10.50;;;9.40;99.90;;;;;;5015604;28;20447;-74
2020/12/20 06:14:50;;;;;;;11.27;9.80;;;9.50;99.90;;;;;;5014233;28;20815;-74
2020/12/20 06:17:23;;;;;;;13.10;9.70;;;9.40;99.90;;;;;;5014129;28;20984;-74
2020/12/20 06:19:59;;;;;;;11.60;8.63;;;9.50;99.90;;;;;;5014337;28;20410;-74
2020/12/20 06:22:31;;;;;;;9.40;8.17;;;9.40;99.90;;;;;;5012334;28;20446;-73
2020/12/20 06:25:06;;;;;;;14.23;10.10;;;9.40;99.90;;;;;;5013903;28;20423;-72
2020/12/20 06:27:34;;;;;;;13.17;9.53;;;9.40;99.90;;;;;;4994558;28;20411;-73
2020/12/20 06:30:06;;;;;;;12.53;9.10;;;9.40;99.90;;;;;;4994457;28;20405;-72
2020/12/20 06:32:39;;;;;;;9.13;8.23;;;9.50;99.90;;;;;;5010477;28;20429;-71
2020/12/20 06:35:20;;;;;;;12.63;9.27;;;9.30;99.90;;;;;;5013714;28;20455;-72
2020/12/20 06:37:47;;;;;;;13.43;9.57;;;9.30;99.90;;;;;;5013268;28;21019;-73
2020/12/20 06:40:14;;;;;;;13.07;9.87;;;9.40;99.90;;;;;;5013557;28;20415;-73
2020/12/20 06:42:43;;;;;;;13.93;9.83;;;9.40;99.90;;;;;;5013079;28;20825;-73
2020/12/20 06:45:16;;;;;;;12.90;10.03;;;9.30;99.90;;;;;;5012919;28;20506;-72
2020/12/20 06:47:49;;;;;;;14.20;9.00;;;9.30;99.90;;;;;;5013464;28;20499;-72
2020/12/20 06:50:41;;;;;;;14.50;9.73;;;9.30;99.90;;;;;;5013340;28;20432;-74
2020/12/20 06:53:08;;;;;;;15.90;9.97;;;9.30;99.90;;;;;;5013525;28;20430;-75
2020/12/20 06:55:34;;;;;;;16.03;9.63;;;9.20;99.90;;;;;;5012874;28;20427;-74
2020/12/20 06:58:03;;;;;;;13.87;10.27;;;9.20;99.90;;;;;;5013612;28;20417;-73
2020/12/20 07:00:53;;;;;;;9.67;8.70;;;9.20;99.90;;;;;;5012971;28;20286;-72
2020/12/20 07:03:40;;;;;;;11.40;9.40;;;9.20;99.90;;;;;;5001154;28;20458;-73
2020/12/20 07:06:17;;;;;;;12.33;9.13;;;9.30;99.90;;;;;;5012623;28;20494;-73
2020/12/20 07:08:53;;;;;;;13.00;9.57;;;9.30;99.90;;;;;;5009600;28;20426;-73
2020/12/20 07:11:21;;;;;;;11.90;10.10;;;9.40;99.90;;;;;;5011713;28;20450;-73
2020/12/20 07:13:48;;;;;;;13.03;9.70;;;9.40;99.90;;;;;;5012975;28;20424;-73
2020/12/20 07:16:17;;;;;;;14.67;9.80;;;9.40;99.90;;;;;;5012513;28;20959;-72
2020/12/20 07:19:02;;;;;;;13.97;10.53;;;9.30;99.90;;;;;;5013046;28;20936;-72
2020/12/20 07:21:52;;;;;;;13.07;10.20;;;9.30;99.90;;;;;;5011680;28;20439;-74
2020/12/20 07:24:23;;;;;;;11.43;9.57;;;9.30;99.90;;;;;;5011674;28;20442;-73
2020/12/20 07:26:59;;;;;;;10.83;9.37;;;9.20;99.90;;;;;;5013095;28;20465;-72
2020/12/20 07:29:25;;;;;;;11.33;9.70;;;9.20;99.90;;;;;;5013075;28;20907;-73
2020/12/20 07:31:55;;;;;;;11.10;9.13;;;9.30;99.90;;;;;;5011025;28;20443;-73
2020/12/20 07:34:23;;;;;;;10.13;8.83;;;9.30;99.90;;;;;;4993391;28;20404;-73
2020/12/20 07:36:48;;;;;;;9.73;8.07;;;9.40;99.90;;;;;;4993466;28;20769;-73
2020/12/20 07:39:14;;;;;;;10.37;8.50;;;9.40;99.90;;;;;;5011469;28;20435;-73
2020/12/20 07:41:40;;;;;;;10.97;9.37;;;9.40;99.90;;;;;;5012722;28;20249;-73
2020/12/20 07:44:07;;;;;;;10.33;8.20;;;9.40;99.90;;;;;;5012794;28;20407;-72
2020/12/20 07:46:34;;;;;;;12.67;8.47;;;9.20;99.90;;;;;;5044420;28;20207;-72
2020/12/20 07:49:13;;;;;;;10.00;8.80;;;9.20;99.90;;;;;;5012267;28;20811;-72
2020/12/20 07:51:39;;;;;;;17.33;9.00;;;9.20;99.90;;;;;;5011161;28;20435;-72
2020/12/20 07:54:13;;;;;;;9.97;8.70;;;9.20;99.90;;;;;;5012694;28;20419;-73
2020/12/20 07:56:46;;;;;;;13.20;9.83;;;9.10;99.90;;;;;;5012252;28;20464;-72
2020/12/20 07:59:16;;;;;;;13.07;9.97;;;9.10;99.90;;;;;;5012731;28;20438;-72
2020/12/20 08:01:45;;;;;;;11.40;9.77;;;9.10;99.90;;;;;;5011981;28;20509;-72
2020/12/20 08:04:11;;;;;;;13.00;10.00;;;9.10;99.90;;;;;;5012207;28;20455;-72
2020/12/20 08:06:42;;;;;;;14.67;9.97;;;9.10;99.90;;;;;;5012203;28;20637;-73
2020/12/20 08:09:13;;;;;;;10.80;9.10;;;9.00;99.90;;;;;;5012783;28;20195;-72
2020/12/20 08:11:41;;;;;;;12.37;10.07;;;9.10;99.90;;;;;;5013482;28;20451;-73
2020/12/20 08:14:08;;;;;;;11.70;10.07;;;9.20;99.90;;;;;;5013779;28;20423;-73
2020/12/20 08:16:36;;;;;;;13.43;8.80;;;9.30;99.90;;;;;;5012844;28;20517;-72
2020/12/20 08:19:07;;;;;;;10.47;9.47;;;9.30;99.90;;;;;;5013653;28;20818;-72
2020/12/20 08:21:33;;;;;;;9.03;7.77;;;9.40;99.90;;;;;;5012768;28;20502;-73
2020/12/20 08:23:59;;;;;;;9.00;8.20;;;9.40;99.90;;;;;;5011341;28;20444;-72
2020/12/20 08:26:30;;;;;;;15.20;9.20;;;9.50;99.90;;;;;;5011986;28;20673;-73
2020/12/20 08:28:57;;;;;;;9.37;7.43;;;9.50;99.90;;;;;;5012515;28;20411;-73
2020/12/20 08:31:26;;;;;;;9.43;8.33;;;9.70;99.90;;;;;;5011706;28;20443;-72
2020/12/20 08:33:51;;;;;;;9.80;8.90;;;9.70;99.90;;;;;;5012056;28;20757;-73
2020/12/20 08:36:21;;;;;;;13.50;7.53;;;9.70;99.90;;;;;;5011808;28;20449;-73
2020/12/20 08:38:47;;;;;;;10.80;8.83;;;9.70;99.90;;;;;;5011865;28;20569;-73
2020/12/20 08:41:27;;;;;;;13.10;8.30;;;9.70;99.90;;;;;;5011761;28;20427;-73
2020/12/20 08:44:12;;;;;;;15.10;9.03;;;9.60;99.90;;;;;;5012019;28;20435;-73
2020/12/20 08:46:41;;;;;;;10.77;8.73;;;9.50;99.90;;;;;;5011774;28;20494;-72
2020/12/20 08:49:20;;;;;;;11.43;9.20;;;9.50;99.90;;;;;;5011863;28;20435;-73
2020/12/20 08:51:49;;;;;;;12.57;9.63;;;9.50;99.90;;;;;;5027004;28;20944;-73
2020/12/20 08:54:30;;;;;;;13.00;9.53;;;9.60;99.90;;;;;;5011912;28;20415;-73
2020/12/20 08:57:13;;;;;;;11.60;10.10;;;9.50;99.90;;;;;;5011802;28;20839;-74
2020/12/20 08:59:42;;;;;;;14.53;11.40;;;9.60;99.90;;;;;;5011969;28;20398;-73
2020/12/20 09:02:16;;;;;;;16.43;10.37;;;9.80;99.90;;;;;;5007260;28;20470;-72
2020/12/20 09:04:53;;;;;;;8.80;7.90;;;9.90;99.90;;;;;;4992429;28;20407;-74
2020/12/20 09:07:40;;;;;;;9.97;8.30;;;10.00;99.90;;;;;;5005729;28;20458;-73
2020/12/20 09:10:08;;;;;;;15.13;8.80;;;10.10;99.90;;;;;;5011933;28;20406;-73
2020/12/20 09:12:35;;;;;;;11.00;8.80;;;10.10;99.90;;;;;;5007710;28;20825;-74
2020/12/20 09:15:10;;;;;;;11.57;8.07;;;10.00;99.90;;;;;;4992265;28;20400;-72
2020/12/20 09:17:40;;;;;;;10.73;9.27;;;9.90;99.90;;;;;;5011365;28;20862;-72
2020/12/20 09:20:15;;;;;;;10.40;9.30;;;9.80;99.90;;;;;;5009620;28;20477;-73
2020/12/20 09:22:55;;;;;;;11.77;9.60;;;9.80;99.90;;;;;;4990957;28;20423;-73
2020/12/20 09:25:34;;;;;;;11.57;9.70;;;9.80;99.90;;;;;;4992288;28;20415;-73
2020/12/20 09:28:04;;;;;;;10.80;8.93;;;9.80;99.90;;;;;;5009955;28;20422;-72
2020/12/20 09:30:30;;;;;;;12.03;10.10;;;9.80;99.90;;;;;;5011204;28;20443;-72
2020/12/20 09:32:56;;;;;;;14.03;9.40;;;9.80;99.90;;;;;;5011738;28;20391;-73
2020/12/20 09:35:21;;;;;;;12.87;9.43;;;9.90;99.90;;;;;;5013503;28;20226;-73
2020/12/20 09:37:47;;;;;;;11.90;9.23;;;10.00;99.90;;;;;;5014749;28;20419;-72
2020/12/20 09:40:13;;;;;;;10.83;9.23;;;10.10;99.90;;;;;;5015005;28;20168;-73
2020/12/20 09:42:43;;;;;;;11.33;8.70;;;10.10;99.90;;;;;;5014871;28;20169;-74
2020/12/20 09:45:10;;;;;;;11.63;9.90;;;10.20;99.90;;;;;;5014993;28;20172;-74
2020/12/20 09:47:44;;;;;;;16.47;8.57;;;10.20;99.90;;;;;;5014577;28;20521;-72
2020/12/20 09:50:10;;;;;;;11.90;8.90;;;10.40;99.90;;;;;;5014992;28;20406;-73
2020/12/20 09:52:37;;;;;;;12.33;8.90;;;10.50;99.90;;;;;;5007037;28;20420;-73
2020/12/20 09:55:05;;;;;;;14.57;10.47;;;10.50;99.90;;;;;;5011118;28;20472;-72
2020/12/20 09:57:31;;;;;;;12.50;10.53;;;10.70;99.90;;;;;;5014716;28;20481;-74
2020/12/20 09:59:57;;;;;;;13.83;9.60;;;10.60;99.90;;;;;;5014732;28;20446;-72
2020/12/20 10:02:22;;;;;;;11.10;8.47;;;10.60;99.90;;;;;;5010116;28;20184;-72
2020/12/20 10:04:48;;;;;;;11.57;8.80;;;10.60;99.90;;;;;;5014412;28;20176;-73
2020/12/20 10:07:14;;;;;;;12.13;8.77;;;10.60;99.90;;;;;;5014600;28;20275;-73
2020/12/20 10:09:39;;;;;;;13.90;9.17;;;10.50;99.90;;;;;;5014522;28;20207;-73
2020/12/20 10:12:06;;;;;;;12.53;9.63;;;10.50;99.90;;;;;;5014217;28;20192;-73
2020/12/20 10:14:32;;;;;;;11.67;8.63;;;10.50;99.90;;;;;;5014228;28;20230;-73
2020/12/20 10:16:58;;;;;;;13.30;9.53;;;10.60;99.90;;;;;;5014175;28;22142;-72
2020/12/20 10:19:24;;;;;;;12.13;9.60;;;10.60;99.90;;;;;;5029727;28;20411;-74
2020/12/20 10:21:50;;;;;;;17.90;8.80;;;10.60;99.90;;;;;;5013796;28;20511;-74
2020/12/20 10:24:17;;;;;;;12.00;8.60;;;10.60;99.90;;;;;;5014398;28;20293;-73
2020/12/20 10:26:44;;;;;;;13.00;8.83;;;10.70;99.90;;;;;;5013744;28;20455;-73
2020/12/20 10:29:13;;;;;;;11.50;8.40;;;10.80;99.90;;;;;;4994750;28;20491;-74
2020/12/20 10:31:40;;;;;;;11.30;7.87;;;10.90;99.90;;;;;;5041842;28;20855;-73
2020/12/20 10:34:06;;;;;;;15.93;8.33;;;10.90;99.90;;;;;;5014616;28;20948;-74
2020/12/20 10:36:31;;;;;;;14.90;8.13;;;10.90;99.90;;;;;;5031745;28;20447;-72
2020/12/20 10:38:57;;;;;;;12.70;8.20;;;11.00;99.90;;;;;;5015399;28;20451;-74
2020/12/20 10:41:22;;;;;;;9.87;8.37;;;11.00;99.90;;;;;;5030609;28;20195;-73
2020/12/20 10:43:48;;;;;;;10.13;8.00;;;11.10;99.90;;;;;;5024654;28;20176;-74
2020/12/20 10:46:13;;;;;;;10.50;8.93;;;11.10;99.90;;;;;;5011683;28;20287;-73
2020/12/20 10:48:39;;;;;;;11.50;7.30;;;11.00;99.90;;;;;;5012310;28;20257;-73
2020/12/20 10:51:05;;;;;;;10.00;7.63;;;11.00;99.90;;;;;;5012015;28;20196;-73
2020/12/20 10:53:30;;;;;;;13.83;8.60;;;11.00;99.90;;;;;;5011405;28;20179;-72
2020/12/20 10:55:57;;;;;;;14.83;8.00;;;10.90;99.90;;;;;;5012397;28;20179;-73
2020/12/20 10:58:22;;;;;;;15.83;8.47;;;10.90;99.90;;;;;;5012583;28;20183;-73
2020/12/20 11:00:48;;;;;;;9.60;8.63;;;10.90;99.90;;;;;;5012430;28;20830;-72
2020/12/20 11:03:13;;;;;;;10.83;7.33;;;10.90;99.90;;;;;;5012279;28;20271;-73
2020/12/20 11:05:39;;;;;;;8.80;7.47;;;10.80;99.90;;;;;;5012389;28;20206;-73
2020/12/20 11:08:04;;;;;;;10.70;7.90;;;10.80;99.90;;;;;;5012531;28;20264;-73
2020/12/20 11:10:30;;;;;;;9.97;7.63;;;10.80;99.90;;;;;;5012088;28;20192;-72
2020/12/20 11:12:56;;;;;;;10.00;6.87;;;10.80;99.90;;;;;;5011593;28;20629;-73
2020/12/20 11:15:21;;;;;;;15.93;8.63;;;10.80;99.90;;;;;;5012443;28;20544;-73
2020/12/20 11:17:47;;;;;;;8.00;7.20;;;10.90;99.90;;;;;;5011974;28;20171;-73
2020/12/20 11:20:13;;;;;;;9.47;6.87;;;10.90;99.90;;;;;;5012157;28;20654;-74
2020/12/20 11:22:38;;;;;;;8.20;6.17;;;11.00;99.90;;;;;;5011459;28;20173;-73
2020/12/20 11:25:04;;;;;;;10.47;7.97;;;11.00;99.90;;;;;;5011876;28;20423;-73
2020/12/20 11:27:29;;;;;;;10.67;8.70;;;11.00;99.90;;;;;;5011780;28;20261;-73
2020/12/20 11:29:55;;;;;;;13.53;8.90;;;10.90;99.90;;;;;;5011875;28;20218;-73
2020/12/20 11:32:21;;;;;;;9.87;8.83;;;10.90;99.90;;;;;;5005308;28;20219;-72
2020/12/20 11:34:46;;;;;;;13.53;8.53;;;10.90;99.90;;;;;;5010713;28;20248;-72
2020/12/20 11:37:12;;;;;;;10.27;8.17;;;10.90;99.90;;;;;;5010129;28;20186;-73
2020/12/20 11:39:37;;;;;;;12.23;8.67;;;10.90;99.90;;;;;;5007848;28;20714;-73
2020/12/20 11:42:03;;;;;;;14.33;8.13;;;10.90;99.90;;;;;;5009773;28;20196;-74
2020/12/20 11:44:29;;;;;;;10.73;8.53;;;10.90;99.90;;;;;;5007415;28;20180;-73
2020/12/20 11:46:54;;;;;;;11.17;9.10;;;10.90;99.90;;;;;;5004559;28;20195;-72
2020/12/20 11:49:20;;;;;;;10.70;7.90;;;10.80;99.90;;;;;;5008324;28;20183;-73
2020/12/20 11:51:46;;;;;;;12.07;8.60;;;10.90;99.90;;;;;;5010929;28;20220;-73
2020/12/20 11:54:12;;;;;;;15.10;9.17;;;10.90;99.90;;;;;;5025790;28;20219;-73
2020/12/20 11:56:38;;;;;;;10.40;8.23;;;10.90;99.90;;;;;;5011409;28;20494;-73
2020/12/20 11:59:03;;;;;;;14.40;9.77;;;10.90;99.90;;;;;;5011105;28;20188;-72
2020/12/20 12:01:30;;;;;;;17.60;10.90;;;10.90;99.90;;;;;;5010880;28;20192;-73
2020/12/20 12:03:56;;;;;;;11.37;8.83;;;10.90;99.90;;;;;;5010723;28;20181;-72
2020/12/20 12:06:22;;;;;;;13.20;9.27;;;10.80;99.90;;;;;;5011282;28;20450;-73
2020/12/20 12:08:48;;;;;;;10.47;9.17;;;10.90;99.90;;;;;;5011355;28;20203;-73
2020/12/20 12:11:20;;;;;;;14.77;8.53;;;10.90;99.90;;;;;;5042804;28;20289;-72
2020/12/20 12:13:47;;;;;;;16.17;10.37;;;11.00;99.90;;;;;;5009002;28;20419;-73
2020/12/20 12:16:20;;;;;;;11.43;9.53;;;11.10;99.90;;;;;;5010201;28;20419;-72
2020/12/20 12:18:47;;;;;;;13.40;9.00;;;11.10;99.90;;;;;;5011347;28;20414;-74
2020/12/20 12:21:15;;;;;;;15.63;8.97;;;11.20;99.90;;;;;;5010386;28;20446;-73
2020/12/20 12:23:41;;;;;;;21.23;15.30;;;11.20;99.90;;;;;;5010854;28;20427;-73
2020/12/20 12:26:07;;;;;;;25.30;15.17;;;11.20;99.90;;;;;;5011412;28;20959;-73
2020/12/20 12:28:33;;;;;;;47.63;28.23;;;11.30;99.90;;;;;;5011292;28;20399;-73
2020/12/20 12:30:58;;;;;;;16.17;10.37;;;11.30;99.90;;;;;;5011182;28;20188;-73
2020/12/20 12:33:24;;;;;;;14.43;9.47;;;11.30;99.90;;;;;;5010920;28;20172;-73
2020/12/20 12:35:49;;;;;;;16.80;10.00;;;11.40;99.90;;;;;;5011297;28;20184;-73
2020/12/20 12:38:15;;;;;;;16.70;9.47;;;11.50;99.90;;;;;;5010303;28;20187;-73
2020/12/20 12:40:40;;;;;;;13.27;10.93;;;11.50;99.90;;;;;;5009889;28;20192;-73
2020/12/20 12:43:06;;;;;;;14.70;10.87;;;11.50;99.90;;;;;;5011255;28;20199;-72
2020/12/20 12:45:32;;;;;;;18.10;12.40;;;11.50;99.90;;;;;;5011161;28;20203;-72
2020/12/20 12:47:57;;;;;;;17.03;10.63;;;11.50;99.90;;;;;;5010526;28;20191;-73
2020/12/20 12:50:23;;;;;;;16.03;10.03;;;11.50;99.90;;;;;;5010724;28;20263;-73